sensor_id;sensor_type;location;lat;lon;timestamp;P1;durP1;ratioP1;P2;durP2;ratioP2
8225;SDS011;4154;48.810;9.012;2024-01-16T00:01:09;2.97;;;2.37;;
8225;SDS011;4154;48.810;9.012;2024-01-16T00:03:35;2.80;;;2.40;;
8225;SDS011;4154;48.810;9.012;2024-01-16T00:06:03;5.40;;;2.70;;
8225;SDS011;4154;48.810;9.012;2024-01-16T00:08:30;2.53;;;2.33;;
8225;SDS011;4154;48.810;9.012;2024-01-16T00:10:56;3.03;;;2.23;;
8225;SDS011;4154;48.810;9.012;2024-01-16T00:13:22;3.60;;;2.60;;
8225;SDS011;4154;48.810;9.012;2024-01-16T00:15:47;3.93;;;2.73;;
8225;SDS011;4154;48.810;9.012;2024-01-16T00:18:14;2.83;;;2.30;;
8225;SDS011;4154;48.810;9.012;2024-01-16T00:20:40;3.00;;;2.70;;
8225;SDS011;4154;48.810;9.012;2024-01-16T00:23:06;3.63;;;2.20;;
8225;SDS011;4154;48.810;9.012;2024-01-16T00:25:33;3.53;;;2.90;;
8225;SDS011;4154;48.810;9.012;2024-01-16T00:27:59;2.63;;;2.43;;
8225;SDS011;4154;48.810;9.012;2024-01-16T00:30:27;2.90;;;2.63;;
8225;SDS011;4154;48.810;9.012;2024-01-16T00:32:52;3.00;;;2.63;;
8225;SDS011;4154;48.810;9.012;2024-01-16T00:35:18;3.50;;;2.53;;
8225;SDS011;4154;48.810;9.012;2024-01-16T00:37:44;3.67;;;2.70;;
8225;SDS011;4154;48.810;9.012;2024-01-16T00:40:10;3.80;;;2.80;;
8225;SDS011;4154;48.810;9.012;2024-01-16T00:42:36;3.83;;;2.80;;
8225;SDS011;4154;48.810;9.012;2024-01-16T00:45:02;3.30;;;2.63;;
8225;SDS011;4154;48.810;9.012;2024-01-16T00:47:27;3.60;;;3.03;;
8225;SDS011;4154;48.810;9.012;2024-01-16T00:49:53;5.70;;;2.90;;
8225;SDS011;4154;48.810;9.012;2024-01-16T00:52:19;3.10;;;2.53;;
8225;SDS011;4154;48.810;9.012;2024-01-16T00:54:44;3.63;;;2.63;;
8225;SDS011;4154;48.810;9.012;2024-01-16T00:57:10;3.90;;;2.47;;
8225;SDS011;4154;48.810;9.012;2024-01-16T00:59:36;3.93;;;2.93;;
8225;SDS011;4154;48.810;9.012;2024-01-16T01:02:02;3.93;;;2.43;;
8225;SDS011;4154;48.810;9.012;2024-01-16T01:04:32;3.53;;;2.70;;
8225;SDS011;4154;48.810;9.012;2024-01-16T01:06:59;3.43;;;2.67;;
8225;SDS011;4154;48.810;9.012;2024-01-16T01:09:24;3.20;;;2.90;;
8225;SDS011;4154;48.810;9.012;2024-01-16T01:11:50;3.33;;;2.70;;
8225;SDS011;4154;48.810;9.012;2024-01-16T01:14:15;4.87;;;2.60;;
8225;SDS011;4154;48.810;9.012;2024-01-16T01:16:41;3.30;;;2.60;;
8225;SDS011;4154;48.810;9.012;2024-01-16T01:19:06;4.03;;;2.97;;
8225;SDS011;4154;48.810;9.012;2024-01-16T01:21:32;3.67;;;2.83;;
8225;SDS011;4154;48.810;9.012;2024-01-16T01:24:00;3.40;;;2.73;;
8225;SDS011;4154;48.810;9.012;2024-01-16T01:26:25;3.63;;;2.67;;
8225;SDS011;4154;48.810;9.012;2024-01-16T01:28:51;3.30;;;2.73;;
8225;SDS011;4154;48.810;9.012;2024-01-16T01:31:17;3.37;;;2.87;;
8225;SDS011;4154;48.810;9.012;2024-01-16T01:33:43;3.43;;;3.00;;
8225;SDS011;4154;48.810;9.012;2024-01-16T01:36:08;2.83;;;2.57;;
8225;SDS011;4154;48.810;9.012;2024-01-16T01:38:34;4.57;;;3.00;;
8225;SDS011;4154;48.810;9.012;2024-01-16T01:41:00;3.03;;;2.63;;
8225;SDS011;4154;48.810;9.012;2024-01-16T01:43:26;3.77;;;2.77;;
8225;SDS011;4154;48.810;9.012;2024-01-16T01:48:44;3.73;;;3.00;;
8225;SDS011;4154;48.810;9.012;2024-01-16T01:51:13;4.60;;;3.37;;
8225;SDS011;4154;48.810;9.012;2024-01-16T01:53:43;3.97;;;2.80;;
8225;SDS011;4154;48.810;9.012;2024-01-16T01:56:17;4.40;;;2.93;;
8225;SDS011;4154;48.810;9.012;2024-01-16T01:58:45;3.43;;;2.80;;
8225;SDS011;4154;48.810;9.012;2024-01-16T02:01:13;3.07;;;2.73;;
8225;SDS011;4154;48.810;9.012;2024-01-16T02:03:43;3.67;;;2.80;;
8225;SDS011;4154;48.810;9.012;2024-01-16T02:06:11;3.97;;;2.87;;
8225;SDS011;4154;48.810;9.012;2024-01-16T02:08:38;3.97;;;3.13;;
8225;SDS011;4154;48.810;9.012;2024-01-16T02:11:05;3.63;;;2.90;;
8225;SDS011;4154;48.810;9.012;2024-01-16T02:13:30;3.53;;;2.80;;
8225;SDS011;4154;48.810;9.012;2024-01-16T02:15:56;4.10;;;2.83;;
8225;SDS011;4154;48.810;9.012;2024-01-16T02:18:22;3.23;;;2.67;;
8225;SDS011;4154;48.810;9.012;2024-01-16T02:20:48;4.00;;;2.93;;
8225;SDS011;4154;48.810;9.012;2024-01-16T02:23:14;3.57;;;3.10;;
8225;SDS011;4154;48.810;9.012;2024-01-16T02:25:41;2.87;;;2.43;;
8225;SDS011;4154;48.810;9.012;2024-01-16T02:28:08;4.17;;;2.90;;
8225;SDS011;4154;48.810;9.012;2024-01-16T02:30:34;3.27;;;2.63;;
8225;SDS011;4154;48.810;9.012;2024-01-16T02:32:59;3.40;;;2.80;;
8225;SDS011;4154;48.810;9.012;2024-01-16T02:35:25;4.37;;;2.90;;
8225;SDS011;4154;48.810;9.012;2024-01-16T02:37:51;3.87;;;2.83;;
8225;SDS011;4154;48.810;9.012;2024-01-16T02:40:16;3.97;;;3.03;;
8225;SDS011;4154;48.810;9.012;2024-01-16T02:42:42;3.10;;;2.80;;
8225;SDS011;4154;48.810;9.012;2024-01-16T02:45:08;3.17;;;2.63;;
8225;SDS011;4154;48.810;9.012;2024-01-16T02:47:34;3.60;;;2.70;;
8225;SDS011;4154;48.810;9.012;2024-01-16T02:50:00;3.60;;;2.73;;
8225;SDS011;4154;48.810;9.012;2024-01-16T02:52:26;3.27;;;2.67;;
8225;SDS011;4154;48.810;9.012;2024-01-16T02:54:53;3.63;;;2.97;;
8225;SDS011;4154;48.810;9.012;2024-01-16T02:57:18;3.73;;;2.97;;
8225;SDS011;4154;48.810;9.012;2024-01-16T02:59:44;3.70;;;3.33;;
8225;SDS011;4154;48.810;9.012;2024-01-16T03:02:10;3.17;;;2.80;;
8225;SDS011;4154;48.810;9.012;2024-01-16T03:04:36;4.10;;;2.97;;
8225;SDS011;4154;48.810;9.012;2024-01-16T03:07:03;3.43;;;2.90;;
8225;SDS011;4154;48.810;9.012;2024-01-16T03:09:28;3.57;;;2.60;;
8225;SDS011;4154;48.810;9.012;2024-01-16T03:11:54;4.63;;;2.90;;
8225;SDS011;4154;48.810;9.012;2024-01-16T03:14:20;3.00;;;2.57;;
8225;SDS011;4154;48.810;9.012;2024-01-16T03:16:46;3.23;;;2.70;;
8225;SDS011;4154;48.810;9.012;2024-01-16T03:19:12;3.63;;;3.00;;
8225;SDS011;4154;48.810;9.012;2024-01-16T03:21:38;3.13;;;2.83;;
8225;SDS011;4154;48.810;9.012;2024-01-16T03:24:04;4.47;;;3.17;;
8225;SDS011;4154;48.810;9.012;2024-01-16T03:26:30;3.20;;;2.90;;
8225;SDS011;4154;48.810;9.012;2024-01-16T03:28:57;3.80;;;3.10;;
8225;SDS011;4154;48.810;9.012;2024-01-16T03:31:23;3.83;;;2.70;;
8225;SDS011;4154;48.810;9.012;2024-01-16T03:33:49;3.87;;;2.80;;
8225;SDS011;4154;48.810;9.012;2024-01-16T03:36:15;3.77;;;2.90;;
8225;SDS011;4154;48.810;9.012;2024-01-16T03:38:42;4.30;;;2.90;;
8225;SDS011;4154;48.810;9.012;2024-01-16T03:41:08;3.40;;;2.93;;
8225;SDS011;4154;48.810;9.012;2024-01-16T03:43:36;2.87;;;2.60;;
8225;SDS011;4154;48.810;9.012;2024-01-16T03:46:01;4.30;;;2.83;;
8225;SDS011;4154;48.810;9.012;2024-01-16T03:48:28;3.27;;;2.83;;
8225;SDS011;4154;48.810;9.012;2024-01-16T03:50:54;3.70;;;3.00;;
8225;SDS011;4154;48.810;9.012;2024-01-16T03:53:21;4.27;;;2.80;;
8225;SDS011;4154;48.810;9.012;2024-01-16T03:55:47;3.43;;;3.10;;
8225;SDS011;4154;48.810;9.012;2024-01-16T03:58:14;3.73;;;2.70;;
8225;SDS011;4154;48.810;9.012;2024-01-16T04:00:41;3.47;;;2.70;;
8225;SDS011;4154;48.810;9.012;2024-01-16T04:03:08;4.23;;;2.83;;
8225;SDS011;4154;48.810;9.012;2024-01-16T04:05:33;4.00;;;2.87;;
8225;SDS011;4154;48.810;9.012;2024-01-16T04:07:59;3.67;;;2.90;;
8225;SDS011;4154;48.810;9.012;2024-01-16T04:10:25;3.73;;;3.00;;
8225;SDS011;4154;48.810;9.012;2024-01-16T04:12:51;3.37;;;2.80;;
8225;SDS011;4154;48.810;9.012;2024-01-16T04:15:17;3.70;;;2.80;;
8225;SDS011;4154;48.810;9.012;2024-01-16T04:17:42;3.73;;;2.80;;
8225;SDS011;4154;48.810;9.012;2024-01-16T04:20:08;4.23;;;2.80;;
8225;SDS011;4154;48.810;9.012;2024-01-16T04:22:35;5.13;;;3.07;;
8225;SDS011;4154;48.810;9.012;2024-01-16T04:25:01;4.63;;;3.00;;
8225;SDS011;4154;48.810;9.012;2024-01-16T04:27:29;3.80;;;3.00;;
8225;SDS011;4154;48.810;9.012;2024-01-16T04:29:56;3.10;;;2.57;;
8225;SDS011;4154;48.810;9.012;2024-01-16T04:32:22;3.20;;;2.57;;
8225;SDS011;4154;48.810;9.012;2024-01-16T04:34:48;4.00;;;2.87;;
8225;SDS011;4154;48.810;9.012;2024-01-16T04:37:14;3.40;;;2.60;;
8225;SDS011;4154;48.810;9.012;2024-01-16T04:39:39;3.70;;;3.03;;
8225;SDS011;4154;48.810;9.012;2024-01-16T04:42:05;4.97;;;2.80;;
8225;SDS011;4154;48.810;9.012;2024-01-16T04:44:30;3.77;;;2.50;;
8225;SDS011;4154;48.810;9.012;2024-01-16T04:46:56;3.67;;;2.70;;
8225;SDS011;4154;48.810;9.012;2024-01-16T04:49:22;3.57;;;3.00;;
8225;SDS011;4154;48.810;9.012;2024-01-16T04:51:47;3.00;;;2.70;;
8225;SDS011;4154;48.810;9.012;2024-01-16T04:54:13;3.67;;;2.60;;
8225;SDS011;4154;48.810;9.012;2024-01-16T04:56:39;3.00;;;2.67;;
8225;SDS011;4154;48.810;9.012;2024-01-16T04:59:05;3.60;;;2.70;;
8225;SDS011;4154;48.810;9.012;2024-01-16T05:01:30;3.33;;;2.80;;
8225;SDS011;4154;48.810;9.012;2024-01-16T05:03:56;2.83;;;2.53;;
8225;SDS011;4154;48.810;9.012;2024-01-16T05:06:21;3.80;;;3.00;;
8225;SDS011;4154;48.810;9.012;2024-01-16T05:08:47;4.53;;;2.80;;
8225;SDS011;4154;48.810;9.012;2024-01-16T05:11:13;3.90;;;2.70;;
8225;SDS011;4154;48.810;9.012;2024-01-16T05:13:39;4.20;;;2.67;;
8225;SDS011;4154;48.810;9.012;2024-01-16T05:16:05;3.10;;;2.80;;
8225;SDS011;4154;48.810;9.012;2024-01-16T05:18:31;3.20;;;2.50;;
8225;SDS011;4154;48.810;9.012;2024-01-16T05:20:59;3.20;;;2.60;;
8225;SDS011;4154;48.810;9.012;2024-01-16T05:23:27;3.27;;;2.60;;
8225;SDS011;4154;48.810;9.012;2024-01-16T05:25:53;4.67;;;2.77;;
8225;SDS011;4154;48.810;9.012;2024-01-16T05:28:18;4.43;;;2.70;;
8225;SDS011;4154;48.810;9.012;2024-01-16T05:30:44;3.63;;;2.50;;
8225;SDS011;4154;48.810;9.012;2024-01-16T05:33:09;3.13;;;2.70;;
8225;SDS011;4154;48.810;9.012;2024-01-16T05:35:35;3.70;;;2.73;;
8225;SDS011;4154;48.810;9.012;2024-01-16T05:38:01;2.80;;;2.60;;
8225;SDS011;4154;48.810;9.012;2024-01-16T05:40:28;4.37;;;2.87;;
8225;SDS011;4154;48.810;9.012;2024-01-16T05:42:53;3.10;;;2.80;;
8225;SDS011;4154;48.810;9.012;2024-01-16T05:45:20;3.23;;;2.80;;
8225;SDS011;4154;48.810;9.012;2024-01-16T05:47:46;3.63;;;2.83;;
8225;SDS011;4154;48.810;9.012;2024-01-16T05:50:12;5.30;;;3.27;;
8225;SDS011;4154;48.810;9.012;2024-01-16T05:52:37;4.23;;;3.20;;
8225;SDS011;4154;48.810;9.012;2024-01-16T05:55:03;4.10;;;3.03;;
8225;SDS011;4154;48.810;9.012;2024-01-16T05:57:30;3.23;;;2.70;;
8225;SDS011;4154;48.810;9.012;2024-01-16T05:59:59;3.80;;;2.87;;
8225;SDS011;4154;48.810;9.012;2024-01-16T06:02:28;3.40;;;2.73;;
8225;SDS011;4154;48.810;9.012;2024-01-16T06:04:54;3.13;;;2.60;;
8225;SDS011;4154;48.810;9.012;2024-01-16T06:07:20;4.17;;;3.00;;
8225;SDS011;4154;48.810;9.012;2024-01-16T06:09:45;3.37;;;2.80;;
8225;SDS011;4154;48.810;9.012;2024-01-16T06:12:11;3.77;;;2.77;;
8225;SDS011;4154;48.810;9.012;2024-01-16T06:14:37;3.73;;;3.10;;
8225;SDS011;4154;48.810;9.012;2024-01-16T06:17:03;3.30;;;3.00;;
8225;SDS011;4154;48.810;9.012;2024-01-16T06:19:31;3.33;;;2.73;;
8225;SDS011;4154;48.810;9.012;2024-01-16T06:21:57;3.80;;;2.83;;
8225;SDS011;4154;48.810;9.012;2024-01-16T06:24:23;3.93;;;2.90;;
8225;SDS011;4154;48.810;9.012;2024-01-16T06:26:49;3.97;;;3.03;;
8225;SDS011;4154;48.810;9.012;2024-01-16T06:29:15;3.80;;;3.10;;
8225;SDS011;4154;48.810;9.012;2024-01-16T06:31:40;4.10;;;3.13;;
8225;SDS011;4154;48.810;9.012;2024-01-16T06:34:06;5.63;;;3.53;;
8225;SDS011;4154;48.810;9.012;2024-01-16T06:36:31;4.80;;;3.27;;
8225;SDS011;4154;48.810;9.012;2024-01-16T06:38:57;4.57;;;3.17;;
8225;SDS011;4154;48.810;9.012;2024-01-16T06:41:23;3.93;;;3.13;;
8225;SDS011;4154;48.810;9.012;2024-01-16T06:43:48;3.23;;;2.93;;
8225;SDS011;4154;48.810;9.012;2024-01-16T06:46:14;4.80;;;3.17;;
8225;SDS011;4154;48.810;9.012;2024-01-16T06:48:40;4.00;;;2.87;;
8225;SDS011;4154;48.810;9.012;2024-01-16T06:51:06;3.17;;;2.87;;
8225;SDS011;4154;48.810;9.012;2024-01-16T06:53:32;3.40;;;2.90;;
8225;SDS011;4154;48.810;9.012;2024-01-16T06:55:58;4.50;;;3.17;;
8225;SDS011;4154;48.810;9.012;2024-01-16T06:58:24;4.43;;;2.67;;
8225;SDS011;4154;48.810;9.012;2024-01-16T07:00:50;3.20;;;2.67;;
8225;SDS011;4154;48.810;9.012;2024-01-16T07:03:15;4.47;;;2.70;;
8225;SDS011;4154;48.810;9.012;2024-01-16T07:05:42;3.47;;;2.90;;
8225;SDS011;4154;48.810;9.012;2024-01-16T07:08:08;5.00;;;2.90;;
8225;SDS011;4154;48.810;9.012;2024-01-16T07:10:34;4.00;;;3.00;;
8225;SDS011;4154;48.810;9.012;2024-01-16T07:13:00;4.23;;;3.40;;
8225;SDS011;4154;48.810;9.012;2024-01-16T07:15:27;4.93;;;2.70;;
8225;SDS011;4154;48.810;9.012;2024-01-16T07:17:53;3.33;;;2.70;;
8225;SDS011;4154;48.810;9.012;2024-01-16T07:20:19;4.50;;;3.00;;
8225;SDS011;4154;48.810;9.012;2024-01-16T07:22:45;3.63;;;2.80;;
8225;SDS011;4154;48.810;9.012;2024-01-16T07:25:11;3.33;;;2.50;;
8225;SDS011;4154;48.810;9.012;2024-01-16T07:27:36;3.97;;;2.60;;
8225;SDS011;4154;48.810;9.012;2024-01-16T07:30:05;2.60;;;2.40;;
8225;SDS011;4154;48.810;9.012;2024-01-16T07:32:32;2.97;;;2.53;;
8225;SDS011;4154;48.810;9.012;2024-01-16T07:34:58;3.13;;;2.33;;
8225;SDS011;4154;48.810;9.012;2024-01-16T07:37:24;3.07;;;2.50;;
8225;SDS011;4154;48.810;9.012;2024-01-16T07:39:50;3.83;;;2.80;;
8225;SDS011;4154;48.810;9.012;2024-01-16T07:42:15;3.13;;;2.50;;
8225;SDS011;4154;48.810;9.012;2024-01-16T07:44:41;3.70;;;2.73;;
8225;SDS011;4154;48.810;9.012;2024-01-16T07:47:07;4.63;;;2.50;;
8225;SDS011;4154;48.810;9.012;2024-01-16T07:49:33;2.60;;;2.40;;
8225;SDS011;4154;48.810;9.012;2024-01-16T07:51:59;3.27;;;2.43;;
8225;SDS011;4154;48.810;9.012;2024-01-16T07:54:25;3.53;;;2.43;;
8225;SDS011;4154;48.810;9.012;2024-01-16T07:56:51;3.53;;;2.47;;
8225;SDS011;4154;48.810;9.012;2024-01-16T07:59:17;3.07;;;2.77;;
8225;SDS011;4154;48.810;9.012;2024-01-16T08:01:43;3.83;;;2.43;;
8225;SDS011;4154;48.810;9.012;2024-01-16T08:04:08;3.90;;;2.80;;
8225;SDS011;4154;48.810;9.012;2024-01-16T08:06:34;3.60;;;2.60;;
8225;SDS011;4154;48.810;9.012;2024-01-16T08:09:00;4.03;;;2.70;;
8225;SDS011;4154;48.810;9.012;2024-01-16T08:11:26;3.83;;;3.03;;
8225;SDS011;4154;48.810;9.012;2024-01-16T08:13:52;5.23;;;2.60;;
8225;SDS011;4154;48.810;9.012;2024-01-16T08:16:17;2.63;;;2.30;;
8225;SDS011;4154;48.810;9.012;2024-01-16T08:18:43;3.33;;;2.37;;
8225;SDS011;4154;48.810;9.012;2024-01-16T08:21:08;3.80;;;2.60;;
8225;SDS011;4154;48.810;9.012;2024-01-16T08:23:34;3.17;;;2.60;;
8225;SDS011;4154;48.810;9.012;2024-01-16T08:26:00;3.90;;;2.93;;
8225;SDS011;4154;48.810;9.012;2024-01-16T08:28:26;2.80;;;2.50;;
8225;SDS011;4154;48.810;9.012;2024-01-16T08:30:52;3.97;;;3.00;;
8225;SDS011;4154;48.810;9.012;2024-01-16T08:33:18;3.43;;;3.10;;
8225;SDS011;4154;48.810;9.012;2024-01-16T08:35:44;5.50;;;2.83;;
8225;SDS011;4154;48.810;9.012;2024-01-16T08:38:10;2.80;;;2.60;;
8225;SDS011;4154;48.810;9.012;2024-01-16T08:40:35;2.93;;;2.30;;
8225;SDS011;4154;48.810;9.012;2024-01-16T08:43:01;3.90;;;2.70;;
8225;SDS011;4154;48.810;9.012;2024-01-16T08:45:28;3.93;;;2.90;;
8225;SDS011;4154;48.810;9.012;2024-01-16T08:47:54;3.30;;;2.17;;
8225;SDS011;4154;48.810;9.012;2024-01-16T08:50:19;4.83;;;2.50;;
8225;SDS011;4154;48.810;9.012;2024-01-16T08:52:45;3.00;;;2.40;;
8225;SDS011;4154;48.810;9.012;2024-01-16T08:55:11;2.53;;;2.33;;
8225;SDS011;4154;48.810;9.012;2024-01-16T08:57:37;2.80;;;2.40;;
8225;SDS011;4154;48.810;9.012;2024-01-16T09:00:06;3.50;;;2.63;;
8225;SDS011;4154;48.810;9.012;2024-01-16T09:02:35;3.73;;;2.87;;
8225;SDS011;4154;48.810;9.012;2024-01-16T09:05:01;3.13;;;2.40;;
8225;SDS011;4154;48.810;9.012;2024-01-16T09:07:27;2.40;;;2.20;;
8225;SDS011;4154;48.810;9.012;2024-01-16T09:09:52;3.17;;;2.40;;
8225;SDS011;4154;48.810;9.012;2024-01-16T09:12:19;2.90;;;2.40;;
8225;SDS011;4154;48.810;9.012;2024-01-16T09:14:45;2.93;;;2.40;;
8225;SDS011;4154;48.810;9.012;2024-01-16T09:17:10;2.60;;;2.40;;
8225;SDS011;4154;48.810;9.012;2024-01-16T09:19:36;3.77;;;2.70;;
8225;SDS011;4154;48.810;9.012;2024-01-16T09:22:02;4.47;;;3.30;;
8225;SDS011;4154;48.810;9.012;2024-01-16T09:24:28;3.77;;;2.83;;
8225;SDS011;4154;48.810;9.012;2024-01-16T09:26:54;4.20;;;2.87;;
8225;SDS011;4154;48.810;9.012;2024-01-16T09:29:20;2.87;;;2.60;;
8225;SDS011;4154;48.810;9.012;2024-01-16T09:31:49;3.70;;;2.87;;
8225;SDS011;4154;48.810;9.012;2024-01-16T09:34:17;2.60;;;2.40;;
8225;SDS011;4154;48.810;9.012;2024-01-16T09:36:43;3.23;;;2.93;;
8225;SDS011;4154;48.810;9.012;2024-01-16T09:39:08;3.20;;;2.90;;
8225;SDS011;4154;48.810;9.012;2024-01-16T09:41:36;4.50;;;3.03;;
8225;SDS011;4154;48.810;9.012;2024-01-16T09:44:03;3.40;;;2.87;;
8225;SDS011;4154;48.810;9.012;2024-01-16T09:46:30;4.30;;;2.97;;
8225;SDS011;4154;48.810;9.012;2024-01-16T09:48:56;3.77;;;2.83;;
8225;SDS011;4154;48.810;9.012;2024-01-16T09:51:24;3.30;;;2.70;;
8225;SDS011;4154;48.810;9.012;2024-01-16T09:53:50;3.57;;;3.17;;
8225;SDS011;4154;48.810;9.012;2024-01-16T09:56:17;3.80;;;2.80;;
8225;SDS011;4154;48.810;9.012;2024-01-16T09:58:49;4.10;;;2.90;;
8225;SDS011;4154;48.810;9.012;2024-01-16T10:01:21;3.63;;;2.73;;
8225;SDS011;4154;48.810;9.012;2024-01-16T10:03:52;3.90;;;2.83;;
8225;SDS011;4154;48.810;9.012;2024-01-16T10:06:17;3.23;;;2.53;;
8225;SDS011;4154;48.810;9.012;2024-01-16T10:08:45;3.93;;;2.87;;
8225;SDS011;4154;48.810;9.012;2024-01-16T10:11:12;2.90;;;2.50;;
8225;SDS011;4154;48.810;9.012;2024-01-16T10:13:38;3.33;;;2.73;;
8225;SDS011;4154;48.810;9.012;2024-01-16T10:16:04;3.00;;;2.60;;
8225;SDS011;4154;48.810;9.012;2024-01-16T10:18:30;3.73;;;2.70;;
8225;SDS011;4154;48.810;9.012;2024-01-16T10:20:57;3.03;;;2.50;;
8225;SDS011;4154;48.810;9.012;2024-01-16T10:23:26;3.87;;;2.83;;
8225;SDS011;4154;48.810;9.012;2024-01-16T10:26:09;4.50;;;2.80;;
8225;SDS011;4154;48.810;9.012;2024-01-16T10:28:40;3.10;;;2.47;;
8225;SDS011;4154;48.810;9.012;2024-01-16T10:31:08;3.90;;;2.67;;
8225;SDS011;4154;48.810;9.012;2024-01-16T10:33:41;3.03;;;2.73;;
8225;SDS011;4154;48.810;9.012;2024-01-16T10:36:10;5.93;;;4.10;;
8225;SDS011;4154;48.810;9.012;2024-01-16T10:38:45;7.57;;;4.93;;
8225;SDS011;4154;48.810;9.012;2024-01-16T10:41:15;4.00;;;3.10;;
8225;SDS011;4154;48.810;9.012;2024-01-16T10:43:43;4.27;;;2.87;;
8225;SDS011;4154;48.810;9.012;2024-01-16T10:46:12;4.20;;;3.07;;
8225;SDS011;4154;48.810;9.012;2024-01-16T10:48:41;3.70;;;2.80;;
8225;SDS011;4154;48.810;9.012;2024-01-16T10:51:24;2.83;;;2.60;;
8225;SDS011;4154;48.810;9.012;2024-01-16T10:53:55;3.60;;;2.60;;
8225;SDS011;4154;48.810;9.012;2024-01-16T10:56:27;3.97;;;2.50;;
8225;SDS011;4154;48.810;9.012;2024-01-16T11:01:43;3.80;;;2.60;;
8225;SDS011;4154;48.810;9.012;2024-01-16T11:04:16;3.93;;;3.17;;
8225;SDS011;4154;48.810;9.012;2024-01-16T11:06:44;3.77;;;3.27;;
8225;SDS011;4154;48.810;9.012;2024-01-16T11:09:12;2.90;;;2.50;;
8225;SDS011;4154;48.810;9.012;2024-01-16T11:11:42;3.03;;;2.60;;
8225;SDS011;4154;48.810;9.012;2024-01-16T11:14:10;3.77;;;2.70;;
8225;SDS011;4154;48.810;9.012;2024-01-16T11:16:38;3.53;;;2.50;;
8225;SDS011;4154;48.810;9.012;2024-01-16T11:19:07;2.80;;;2.50;;
8225;SDS011;4154;48.810;9.012;2024-01-16T11:21:34;2.97;;;2.50;;
8225;SDS011;4154;48.810;9.012;2024-01-16T11:24:03;4.27;;;2.57;;
8225;SDS011;4154;48.810;9.012;2024-01-16T11:26:29;2.77;;;2.40;;
8225;SDS011;4154;48.810;9.012;2024-01-16T11:28:58;3.60;;;2.37;;
8225;SDS011;4154;48.810;9.012;2024-01-16T11:33:58;4.03;;;2.53;;
8225;SDS011;4154;48.810;9.012;2024-01-16T11:36:47;3.20;;;2.60;;
8225;SDS011;4154;48.810;9.012;2024-01-16T11:39:22;3.50;;;2.57;;
8225;SDS011;4154;48.810;9.012;2024-01-16T11:47:15;2.37;;;1.93;;
8225;SDS011;4154;48.810;9.012;2024-01-16T11:49:46;3.53;;;2.47;;
8225;SDS011;4154;48.810;9.012;2024-01-16T11:52:38;2.70;;;2.00;;
8225;SDS011;4154;48.810;9.012;2024-01-16T11:55:25;3.37;;;2.23;;
8225;SDS011;4154;48.810;9.012;2024-01-16T12:01:04;2.40;;;1.87;;
8225;SDS011;4154;48.810;9.012;2024-01-16T12:03:31;2.17;;;1.70;;
8225;SDS011;4154;48.810;9.012;2024-01-16T12:05:58;3.97;;;3.00;;
8225;SDS011;4154;48.810;9.012;2024-01-16T12:08:25;4.83;;;2.73;;
8225;SDS011;4154;48.810;9.012;2024-01-16T12:10:52;3.83;;;2.03;;
8225;SDS011;4154;48.810;9.012;2024-01-16T12:13:17;2.70;;;1.90;;
8225;SDS011;4154;48.810;9.012;2024-01-16T12:15:43;2.80;;;2.03;;
8225;SDS011;4154;48.810;9.012;2024-01-16T12:18:17;3.53;;;2.30;;
8225;SDS011;4154;48.810;9.012;2024-01-16T12:20:43;4.00;;;2.20;;
8225;SDS011;4154;48.810;9.012;2024-01-16T12:23:09;3.90;;;2.30;;
8225;SDS011;4154;48.810;9.012;2024-01-16T12:25:35;2.90;;;2.20;;
8225;SDS011;4154;48.810;9.012;2024-01-16T12:30:34;3.63;;;1.97;;
8225;SDS011;4154;48.810;9.012;2024-01-16T12:33:08;2.90;;;1.77;;
8225;SDS011;4154;48.810;9.012;2024-01-16T12:35:41;1.93;;;1.70;;
8225;SDS011;4154;48.810;9.012;2024-01-16T12:38:10;3.27;;;1.80;;
8225;SDS011;4154;48.810;9.012;2024-01-16T12:40:41;2.50;;;1.70;;
8225;SDS011;4154;48.810;9.012;2024-01-16T12:43:18;2.50;;;1.80;;
8225;SDS011;4154;48.810;9.012;2024-01-16T12:45:44;2.57;;;1.60;;
8225;SDS011;4154;48.810;9.012;2024-01-16T12:48:10;2.50;;;1.70;;
8225;SDS011;4154;48.810;9.012;2024-01-16T12:50:36;2.67;;;1.70;;
8225;SDS011;4154;48.810;9.012;2024-01-16T12:55:32;2.17;;;1.70;;
8225;SDS011;4154;48.810;9.012;2024-01-16T12:58:21;2.53;;;1.70;;
8225;SDS011;4154;48.810;9.012;2024-01-16T13:00:53;2.43;;;1.87;;
8225;SDS011;4154;48.810;9.012;2024-01-16T13:03:24;2.03;;;1.67;;
8225;SDS011;4154;48.810;9.012;2024-01-16T13:05:55;2.57;;;1.90;;
8225;SDS011;4154;48.810;9.012;2024-01-16T13:08:26;2.23;;;1.90;;
8225;SDS011;4154;48.810;9.012;2024-01-16T13:11:02;3.50;;;1.73;;
8225;SDS011;4154;48.810;9.012;2024-01-16T13:13:29;1.60;;;1.50;;
8225;SDS011;4154;48.810;9.012;2024-01-16T13:15:55;1.80;;;1.67;;
8225;SDS011;4154;48.810;9.012;2024-01-16T13:18:22;2.17;;;1.87;;
8225;SDS011;4154;48.810;9.012;2024-01-16T13:20:51;2.37;;;1.70;;
8225;SDS011;4154;48.810;9.012;2024-01-16T13:23:19;2.63;;;1.90;;
8225;SDS011;4154;48.810;9.012;2024-01-16T13:25:46;2.03;;;1.80;;
8225;SDS011;4154;48.810;9.012;2024-01-16T13:28:15;1.90;;;1.70;;
8225;SDS011;4154;48.810;9.012;2024-01-16T13:30:43;2.43;;;1.60;;
8225;SDS011;4154;48.810;9.012;2024-01-16T13:33:11;1.57;;;1.47;;
8225;SDS011;4154;48.810;9.012;2024-01-16T13:35:38;1.60;;;1.50;;
8225;SDS011;4154;48.810;9.012;2024-01-16T13:38:06;1.43;;;1.33;;
8225;SDS011;4154;48.810;9.012;2024-01-16T13:40:33;2.10;;;1.60;;
8225;SDS011;4154;48.810;9.012;2024-01-16T13:43:00;1.97;;;1.57;;
8225;SDS011;4154;48.810;9.012;2024-01-16T13:45:27;2.77;;;1.53;;
8225;SDS011;4154;48.810;9.012;2024-01-16T13:47:53;1.87;;;1.57;;
8225;SDS011;4154;48.810;9.012;2024-01-16T13:50:20;1.97;;;1.73;;
8225;SDS011;4154;48.810;9.012;2024-01-16T13:52:46;2.10;;;1.47;;
8225;SDS011;4154;48.810;9.012;2024-01-16T13:55:12;2.70;;;1.80;;
8225;SDS011;4154;48.810;9.012;2024-01-16T13:57:37;1.60;;;1.50;;
8225;SDS011;4154;48.810;9.012;2024-01-16T14:00:04;3.93;;;1.60;;
8225;SDS011;4154;48.810;9.012;2024-01-16T14:02:38;3.30;;;1.80;;
8225;SDS011;4154;48.810;9.012;2024-01-16T14:05:13;2.43;;;1.50;;
8225;SDS011;4154;48.810;9.012;2024-01-16T14:07:47;2.53;;;1.53;;
8225;SDS011;4154;48.810;9.012;2024-01-16T14:10:16;2.73;;;1.50;;
8225;SDS011;4154;48.810;9.012;2024-01-16T14:12:44;2.97;;;1.43;;
8225;SDS011;4154;48.810;9.012;2024-01-16T14:15:12;2.17;;;1.53;;
8225;SDS011;4154;48.810;9.012;2024-01-16T14:17:48;2.17;;;1.57;;
8225;SDS011;4154;48.810;9.012;2024-01-16T14:20:20;1.30;;;1.20;;
8225;SDS011;4154;48.810;9.012;2024-01-16T14:22:49;2.60;;;1.47;;
8225;SDS011;4154;48.810;9.012;2024-01-16T14:25:16;2.70;;;1.60;;
8225;SDS011;4154;48.810;9.012;2024-01-16T14:27:44;1.93;;;1.57;;
8225;SDS011;4154;48.810;9.012;2024-01-16T14:30:28;1.60;;;1.50;;
8225;SDS011;4154;48.810;9.012;2024-01-16T14:32:54;1.60;;;1.50;;
8225;SDS011;4154;48.810;9.012;2024-01-16T14:35:21;1.67;;;1.57;;
8225;SDS011;4154;48.810;9.012;2024-01-16T14:37:49;2.43;;;1.70;;
8225;SDS011;4154;48.810;9.012;2024-01-16T14:40:16;1.93;;;1.63;;
8225;SDS011;4154;48.810;9.012;2024-01-16T14:42:54;1.50;;;1.40;;
8225;SDS011;4154;48.810;9.012;2024-01-16T14:45:24;1.80;;;1.57;;
8225;SDS011;4154;48.810;9.012;2024-01-16T14:47:52;2.10;;;1.67;;
8225;SDS011;4154;48.810;9.012;2024-01-16T14:50:21;2.37;;;1.60;;
8225;SDS011;4154;48.810;9.012;2024-01-16T14:52:47;2.50;;;2.00;;
8225;SDS011;4154;48.810;9.012;2024-01-16T14:55:14;3.37;;;2.17;;
8225;SDS011;4154;48.810;9.012;2024-01-16T14:57:40;2.30;;;2.10;;
8225;SDS011;4154;48.810;9.012;2024-01-16T15:00:18;2.90;;;1.83;;
8225;SDS011;4154;48.810;9.012;2024-01-16T15:02:49;3.63;;;2.10;;
8225;SDS011;4154;48.810;9.012;2024-01-16T15:05:15;2.80;;;2.10;;
8225;SDS011;4154;48.810;9.012;2024-01-16T15:07:43;3.37;;;2.37;;
8225;SDS011;4154;48.810;9.012;2024-01-16T15:10:10;4.00;;;3.17;;
8225;SDS011;4154;48.810;9.012;2024-01-16T15:12:40;5.40;;;3.70;;
8225;SDS011;4154;48.810;9.012;2024-01-16T15:15:11;5.40;;;3.40;;
8225;SDS011;4154;48.810;9.012;2024-01-16T15:17:38;5.63;;;3.77;;
8225;SDS011;4154;48.810;9.012;2024-01-16T15:20:09;4.53;;;3.50;;
8225;SDS011;4154;48.810;9.012;2024-01-16T15:22:42;4.27;;;3.10;;
8225;SDS011;4154;48.810;9.012;2024-01-16T15:25:10;4.03;;;3.23;;
8225;SDS011;4154;48.810;9.012;2024-01-16T15:27:41;3.57;;;3.07;;
8225;SDS011;4154;48.810;9.012;2024-01-16T15:30:10;3.33;;;3.03;;
8225;SDS011;4154;48.810;9.012;2024-01-16T15:32:36;3.73;;;3.10;;
8225;SDS011;4154;48.810;9.012;2024-01-16T15:35:03;4.67;;;3.50;;
8225;SDS011;4154;48.810;9.012;2024-01-16T15:37:32;3.40;;;3.00;;